createdAt,value
2019-04-01T00:01:25.854Z,56.07
2019-04-01T00:06:31.290Z,55.84
2019-04-01T00:11:36.284Z,56.30
2019-04-01T00:16:41.313Z,55.83
2019-04-01T00:21:46.304Z,56.08
2019-04-01T00:26:51.732Z,56.05
2019-04-01T00:31:56.756Z,55.60
2019-04-01T00:37:01.857Z,55.92
2019-04-01T00:42:27.271Z,56.06
2019-04-01T00:47:32.360Z,56.64
2019-04-01T00:52:38.421Z,56.52
2019-04-01T00:57:43.793Z,56.63
2019-04-01T01:02:48.740Z,56.81
2019-04-01T01:07:54.132Z,56.78
2019-04-01T01:12:59.142Z,57.43
2019-04-01T01:18:04.546Z,56.87
2019-04-01T01:23:09.554Z,56.92
2019-04-01T01:28:14.540Z,57.54
2019-04-01T01:33:19.570Z,57.60
2019-04-01T01:38:24.546Z,58.28
2019-04-01T01:43:29.560Z,57.86
2019-04-01T01:48:34.585Z,58.09
2019-04-01T01:53:41.656Z,57.98
2019-04-01T01:58:46.376Z,57.74
2019-04-01T02:03:51.362Z,57.82
2019-04-01T02:08:56.354Z,58.65
2019-04-01T02:14:01.350Z,58.77
2019-04-01T02:19:06.390Z,59.51
2019-04-01T02:24:11.368Z,59.56
2019-04-01T02:29:16.756Z,58.93
2019-04-01T02:34:22.735Z,58.62
2019-04-01T02:39:28.245Z,58.68
2019-04-01T02:44:33.260Z,58.54
2019-04-01T02:49:38.357Z,58.87
2019-04-01T02:54:43.780Z,59.00
2019-04-01T02:59:48.808Z,58.58
2019-04-01T03:04:53.808Z,58.42
2019-04-01T03:09:58.845Z,58.78
2019-04-01T03:15:05.153Z,58.46
2019-04-01T03:20:10.353Z,59.00
2019-04-01T03:25:15.322Z,58.86
2019-04-01T03:30:20.300Z,58.97
2019-04-01T03:35:25.730Z,59.13
2019-04-01T03:40:30.816Z,59.05
2019-04-01T03:45:35.812Z,58.93
2019-04-01T03:50:40.816Z,59.07
2019-04-01T03:55:46.278Z,59.13
2019-04-01T04:00:51.335Z,59.36
2019-04-01T04:05:56.778Z,60.04
2019-04-01T04:11:01.858Z,59.98
2019-04-01T04:16:06.894Z,59.72
2019-04-01T04:21:11.890Z,59.28
2019-04-01T04:26:16.924Z,59.38
2019-04-01T04:31:22.008Z,59.88
2019-04-01T04:36:27.398Z,59.97
2019-04-01T04:41:32.383Z,59.96
2019-04-01T04:46:37.382Z,60.21
2019-04-01T04:51:42.367Z,60.50
2019-04-01T04:56:47.355Z,60.39
2019-04-01T05:01:52.435Z,60.48
2019-04-01T05:06:57.540Z,60.24
2019-04-01T05:12:06.003Z,60.43
2019-04-01T05:17:11.044Z,60.44
2019-04-01T05:22:16.198Z,60.68
2019-04-01T05:27:24.644Z,61.37
2019-04-01T05:32:29.904Z,61.17
2019-04-01T05:37:35.972Z,61.07
2019-04-01T05:42:40.960Z,60.88
2019-04-01T05:47:49.376Z,60.79
2019-04-01T05:52:54.810Z,61.13
2019-04-01T05:57:59.885Z,60.81
2019-04-01T06:03:07.200Z,60.46
2019-04-01T06:08:12.289Z,60.71
2019-04-01T06:13:17.431Z,60.25
2019-04-01T06:18:22.913Z,59.63
2019-04-01T06:23:27.900Z,60.03
2019-04-01T06:28:33.050Z,59.80
2019-04-01T06:33:38.562Z,59.52
2019-04-01T06:38:43.798Z,59.49
2019-04-01T06:43:49.159Z,59.32
2019-04-01T06:48:54.607Z,58.22
2019-04-01T06:53:59.719Z,57.73
2019-04-01T06:59:04.845Z,57.08
2019-04-01T07:04:12.939Z,57.04
2019-04-01T07:09:20.661Z,56.76
2019-04-01T07:14:27.896Z,56.21
2019-04-01T07:19:33.353Z,56.36
2019-04-01T07:24:44.071Z,56.44
2019-04-01T07:29:51.533Z,56.62
2019-04-01T07:34:57.969Z,56.74
2019-04-01T07:40:03.379Z,55.31
2019-04-01T07:45:08.330Z,55.91
2019-04-01T07:50:13.333Z,55.24
2019-04-01T07:55:18.331Z,55.11
2019-04-01T08:00:23.522Z,55.02
2019-04-01T08:05:28.500Z,55.33
2019-04-01T08:10:33.492Z,55.39
2019-04-01T08:15:38.556Z,54.30
2019-04-01T08:20:43.689Z,54.87
2019-04-01T08:25:48.712Z,53.83
2019-04-01T08:30:54.063Z,53.30
2019-04-01T08:35:59.135Z,51.92
2019-04-01T08:41:04.228Z,51.53
2019-04-01T08:46:09.373Z,50.46
2019-04-01T08:51:14.858Z,50.77
2019-04-01T08:56:19.859Z,50.91
2019-04-01T09:01:35.017Z,50.49
2019-04-01T09:06:32.063Z,50.91
2019-04-01T09:11:38.605Z,50.21
2019-04-01T09:16:44.418Z,49.69
2019-04-01T09:21:49.438Z,48.79
2019-04-01T09:26:54.427Z,48.08
2019-04-01T09:31:59.880Z,44.84
2019-04-01T09:37:05.591Z,44.92
2019-04-01T09:42:10.696Z,48.97
2019-04-01T09:47:15.703Z,39.30
2019-04-01T09:52:20.697Z,39.29
2019-04-01T09:57:26.109Z,38.44
2019-04-01T10:02:32.402Z,38.30
2019-04-01T10:07:39.026Z,37.76
2019-04-01T10:12:44.060Z,36.87
2019-04-01T10:17:49.138Z,35.47
2019-04-01T10:22:54.657Z,34.48
2019-04-01T10:28:00.472Z,33.80
2019-04-01T10:33:06.739Z,33.10
2019-04-01T10:38:12.994Z,31.84
2019-04-01T10:43:19.760Z,31.19
2019-04-01T10:48:25.196Z,29.30
2019-04-01T10:53:32.456Z,28.09
2019-04-01T10:58:38.350Z,27.80
2019-04-01T11:03:43.665Z,26.92
2019-04-01T11:08:48.973Z,25.71
2019-04-01T11:13:54.427Z,23.51
2019-04-01T11:19:00.095Z,25.40
2019-04-01T11:24:07.679Z,24.72
2019-04-01T11:29:12.919Z,24.18
2019-04-01T11:34:19.290Z,24.76
2019-04-01T11:39:24.490Z,25.43
2019-04-01T11:44:30.024Z,25.68
2019-04-01T11:49:35.589Z,25.19
2019-04-01T11:54:40.597Z,24.39
2019-04-01T11:59:45.761Z,22.91
2019-04-01T12:04:51.036Z,22.00
2019-04-01T12:09:56.971Z,20.90
2019-04-01T12:15:03.145Z,20.50
2019-04-01T12:20:09.466Z,20.38
2019-04-01T12:25:14.593Z,20.60
2019-04-01T12:30:19.871Z,19.95
2019-04-01T12:35:26.137Z,19.93
2019-04-01T12:40:31.151Z,20.23
2019-04-01T12:45:36.358Z,21.37
2019-04-01T12:50:41.341Z,20.90
2019-04-01T12:55:47.256Z,21.54
2019-04-01T13:01:00.876Z,20.39
2019-04-01T13:06:04.935Z,20.19
2019-04-01T13:11:10.365Z,20.71
2019-04-01T13:16:15.339Z,20.89
2019-04-01T13:21:20.550Z,21.58
2019-04-01T13:26:26.244Z,22.25
2019-04-01T13:31:31.359Z,21.86
2019-04-01T13:36:36.506Z,22.88
2019-04-01T13:41:51.707Z,22.77
2019-04-01T13:46:56.743Z,21.81
2019-04-01T13:52:03.792Z,22.09
2019-04-01T13:57:08.750Z,21.99
2019-04-01T14:02:13.933Z,22.16
2019-04-01T14:07:18.987Z,22.23
2019-04-01T14:12:24.042Z,22.63
2019-04-01T14:17:29.711Z,22.02
2019-04-01T14:22:35.148Z,21.06
2019-04-01T14:27:40.687Z,20.72
2019-04-01T14:32:45.783Z,21.58
2019-04-01T14:37:50.947Z,21.81
2019-04-01T14:42:56.061Z,22.29
2019-04-01T14:48:01.915Z,23.04
2019-04-01T14:53:06.927Z,23.90
2019-04-01T14:58:12.082Z,23.95
2019-04-01T15:03:17.147Z,24.85
2019-04-01T15:08:22.317Z,24.95
2019-04-01T15:13:27.517Z,25.39
2019-04-01T15:18:34.347Z,25.85
2019-04-01T15:23:40.175Z,26.12
2019-04-01T15:28:46.753Z,26.71
2019-04-01T15:33:51.873Z,27.26
2019-04-01T15:38:57.065Z,27.29
2019-04-01T15:44:02.220Z,27.59
2019-04-01T15:49:11.136Z,28.01
2019-04-01T15:54:14.380Z,28.19
2019-04-01T15:59:19.480Z,28.48
2019-04-01T16:04:25.849Z,28.71
2019-04-01T16:09:32.604Z,28.33
2019-04-01T16:14:37.697Z,28.78
2019-04-01T16:19:42.993Z,29.36
2019-04-01T16:24:49.194Z,29.80
2019-04-01T16:29:54.300Z,29.78
2019-04-01T16:34:59.634Z,29.96
2019-04-01T16:40:08.498Z,30.45
2019-04-01T16:45:14.359Z,30.60
2019-04-01T16:50:19.449Z,30.45
2019-04-01T16:55:24.537Z,30.89
2019-04-01T17:00:34.688Z,31.21
2019-04-01T17:05:39.885Z,31.18
2019-04-01T17:10:50.032Z,31.28
2019-04-01T17:15:55.063Z,31.41
2019-04-01T17:21:00.170Z,31.84
2019-04-01T17:26:05.395Z,31.82
2019-04-01T17:31:10.567Z,32.13
2019-04-01T17:36:16.095Z,32.34
2019-04-01T17:41:21.119Z,32.59
2019-04-01T17:46:26.723Z,32.90
2019-04-01T17:51:32.034Z,33.44
2019-04-01T17:56:37.200Z,33.92
2019-04-01T18:01:44.046Z,34.37
2019-04-01T18:06:49.798Z,34.90
2019-04-01T18:11:55.484Z,35.11
2019-04-01T18:17:00.825Z,35.28
2019-04-01T18:22:06.177Z,35.70
2019-04-01T18:27:11.589Z,36.02
2019-04-01T18:32:16.773Z,36.29
2019-04-01T18:37:22.835Z,36.46
2019-04-01T18:42:31.198Z,36.15
2019-04-01T18:47:38.970Z,36.30
2019-04-01T18:52:43.594Z,36.55
2019-04-01T18:57:48.947Z,36.39
2019-04-01T19:02:55.661Z,36.33
2019-04-01T19:08:00.899Z,36.00
2019-04-01T19:13:08.837Z,36.34
2019-04-01T19:18:12.739Z,35.98
2019-04-01T19:23:17.857Z,36.08
2019-04-01T19:28:28.499Z,36.16
2019-04-01T19:33:33.527Z,35.98
2019-04-01T19:38:38.653Z,36.09
2019-04-01T19:43:45.679Z,36.01
2019-04-01T19:48:51.019Z,35.98
2019-04-01T19:53:56.315Z,36.33
2019-04-01T19:59:01.433Z,36.39
2019-04-01T20:04:06.591Z,36.40
2019-04-01T20:09:11.875Z,36.59
2019-04-01T20:14:17.531Z,36.26
2019-04-01T20:19:22.748Z,36.79
2019-04-01T20:24:27.829Z,36.82
2019-04-01T20:29:32.875Z,37.08
2019-04-01T20:34:37.917Z,37.08
2019-04-01T20:39:43.152Z,37.38
2019-04-01T20:44:48.355Z,37.49
2019-04-01T20:49:53.509Z,37.78
2019-04-01T20:54:58.840Z,38.14
2019-04-01T21:00:04.145Z,38.58
2019-04-01T21:05:09.751Z,38.75
2019-04-01T21:10:14.936Z,39.16
2019-04-01T21:15:20.715Z,39.64
2019-04-01T21:20:26.137Z,39.72
2019-04-01T21:25:31.431Z,39.97
2019-04-01T21:30:36.459Z,40.19
2019-04-01T21:35:42.617Z,40.34
2019-04-01T21:40:48.097Z,41.02
2019-04-01T21:45:53.234Z,40.85
2019-04-01T21:50:58.318Z,41.10
2019-04-01T21:56:03.665Z,41.66
2019-04-01T22:01:08.723Z,41.84
2019-04-01T22:06:13.985Z,44.21
2019-04-01T22:11:19.009Z,42.11
2019-04-01T22:16:24.037Z,41.92
2019-04-01T22:21:29.345Z,41.96
2019-04-01T22:26:34.628Z,42.41
2019-04-01T22:31:44.011Z,42.76
2019-04-01T22:36:50.123Z,43.40
2019-04-01T22:41:55.269Z,43.26
2019-04-01T22:47:00.343Z,43.42
2019-04-01T22:52:06.416Z,43.86
2019-04-01T22:57:11.855Z,44.14
2019-04-01T23:02:16.849Z,44.42
2019-04-01T23:07:21.886Z,44.41
2019-04-01T23:12:26.864Z,44.68
2019-04-01T23:17:32.248Z,45.09
2019-04-01T23:22:39.677Z,45.08
2019-04-01T23:27:44.666Z,45.47
2019-04-01T23:32:49.659Z,45.98
2019-04-01T23:37:59.741Z,46.10
2019-04-01T23:43:05.082Z,46.29
2019-04-01T23:48:10.404Z,46.19
2019-04-01T23:53:15.370Z,46.37
2019-04-01T23:58:22.298Z,46.47
